メインページ
METAR-TAF:

METAR-TAF

空港 :

グラン・カナリア空港

グラン・カナリア島, スペイン

緯度: 27-56N, 経度: 015-23W, 海抜: 23m

現時点の気象観測

当レポートは15分前の09:00(UTC)に作成
の風 15kt
気温 22°C
湿度 65%
気圧 1018 hPa
視程10km以上
高度2600ftの千切れ雲あり

METAR: GCLP 200900Z 36015KT 9999 BKN026 22/15 Q1018 NOSIG

時間: 10:15 (09:15 UTC)

予報

当レポートは1時間15分前の08:00(UTC)に作成
予報は20日の 09時(UTC)から 21日の 09時(UTC)まで有効
北/北東の風 15kt
視程10km以上
高度2500ftの雲はほとんどない
20日の 14時(UTC)から 20日の 22時(UTC)まで一時的に
北/北東の風 15kt、最大28ktの突風を伴う

TAF: GCLP 200800Z 2009/2109 02015KT 9999 FEW025 TX26/2015Z TN19/2105Z TEMPO 2014/2022 02015G28KT

4,000以上の空港の気象観測と天気予報(METAR報とTAF報)

利用可能な観測所は地図上に黄色い丸と赤い丸で示す。

丸の上にカーソルを重ねると観測所名を参照できる。

次にクリックすると気象観測と天気予報を参照できる。

マップの切り替え:黒色「×」印の緑ボタンをクリックして拡大、「-」印の緑ボタンをクリックして縮小、緑色の三角印をクリックして隣りの地図に切り替え


METAR-TAF: